Observations for CAGLIARI ELMAS, Italy (LIEE)

LIEE 201950Z 17003KT 9999 SCT040 13/10 Q1026
LIEE 201920Z 16004KT 9999 FEW035 13/10 Q1026
LIEE 201850Z 16005KT 9999 FEW035 12/09 Q1025
LIEE 201820Z 16005KT 9999 FEW050 12/09 Q1025
LIEE 201750Z 16005KT 9999 SCT050 13/09 Q1025
LIEE 201720Z 17005KT 9999 FEW050 13/09 Q1024
LIEE 201650Z 16006KT 9999 SCT050 13/09 Q1024
LIEE 201620Z 17007KT 9999 SCT045 14/09 Q1024
LIEE 201550Z 16008KT 9999 FEW050 14/08 Q1024
LIEE 201520Z 17008KT 9999 FEW050 14/08 Q1024
LIEE 201450Z 16008KT 9999 SCT050 15/08 Q1024
LIEE 201420Z 16008KT 9999 SCT050 15/09 Q1024
LIEE 201350Z 15009KT 9999 FEW030 15/09 Q1024
LIEE 201320Z 16008KT 9999 FEW030 16/08 Q1024
LIEE 201250Z 17008KT 9999 FEW030 16/08 Q1024
LIEE 201220Z 16009KT 9999 FEW030 15/08 Q1024
LIEE 201150Z 17008KT 9999 FEW025 15/09 Q1024
LIEE 201120Z 16008KT 9999 FEW025 15/08 Q1024
LIEE 201050Z 17007KT 9999 FEW025 15/09 Q1024
LIEE 201020Z 17006KT 150V210 9999 FEW025 15/09 Q1024
LIEE 200950Z 21003KT 180V240 9999 FEW030 13/07 Q1024
LIEE 200920Z VRB02KT 9999 FEW030 12/07 Q1024
LIEE 200850Z 31004KT 9999 FEW030 10/07 Q1024
LIEE 200820Z 31004KT 9999 FEW020 08/06 Q1024
LIEE 200750Z 31003KT 9999 FEW020 07/05 Q1024
LIEE 200720Z 32003KT 9999 FEW020 05/04 Q1024
LIEE 200650Z 33005KT 9999 FEW020 04/03 Q1023
LIEE 200620Z 32002KT 9999 FEW020 04/03 Q1023
LIEE 200550Z 36003KT 340V040 9999 FEW020 04/03 Q1022
LIEE 200520Z 33004KT CAVOK 04/02 Q1022  
LIEE 200450Z 35003KT 9999 FEW020 04/03 Q1022
LIEE 200420Z 34004KT 9999 FEW020 04/03 Q1022
LIEE 200350Z 34004KT 9999 FEW012 04/03 Q1022
LIEE 200320Z 33004KT 290V350 9999 FEW020 04/03 Q1022
LIEE 200250Z 34005KT 9999 FEW020 04/03 Q1022
LIEE 200220Z 33006KT 9999 FEW020 05/03 Q1022
LIEE 200150Z 32004KT 280V350 9999 FEW020 05/04 Q1022
LIEE 200120Z 33005KT 9999 FEW020 05/04 Q1022
LIEE 200050Z 33007KT 9999 FEW020 05/04 Q1022
LIEE 200020Z 31005KT 9999 FEW020 06/05 Q1022
LIEE 192350Z 32003KT 300V010 CAVOK 08/06 Q1022  
LIEE 192320Z 05004KT CAVOK 08/05 Q1022  
LIEE 192250Z 06005KT CAVOK 08/05 Q1022  
LIEE 192220Z 04004KT CAVOK 08/06 Q1022  
LIEE 192150Z 07002KT CAVOK 09/06 Q1022  
LIEE 192120Z 08003KT CAVOK 09/06 Q1022  
LIEE 192050Z 12003KT CAVOK 11/07 Q1022  
LIEE 192020Z VRB01KT CAVOK 11/07 Q1022  
LIEE 191950Z 10004KT CAVOK 11/07 Q1022  
LIEE 191920Z 11007KT 9999 FEW030 12/07 Q1022